SCIE/CCP METAR and TAF weather

Enter ICAO airport designator
Station Type Date Time Source
SCIE METAR 2022/01/28 23:00 UTC NOAA

SCIE 282300Z 27007KT 9999 SCT015 OVC023 17/14 Q1015


Station Type Date Time Source
SCIE Decoded METAR 2022/01/28 23:00 UTC NOAA

Concepcion, Chile (SCIE) 36-46S 073-03W
Jan 28, 2022 - 06:00 PM EST / 2022.01.28 2300 UTC
Wind: from the W (270 degrees) at 8 MPH (7 KT):0
Visibility: greater than 7 mile(s):0
Sky conditions: overcast
Temperature: 62 F (17 C)
Dew Point: 57 F (14 C)
Relative Humidity: 82%
Pressure (altimeter): 29.97 in. Hg (1015 hPa)
ob: SCIE 282300Z 27007KT 9999 SCT015 OVC023 17/14 Q1015
cycle: 23

Station Type Date Time Source
SCIE TAF 2022/01/29 00:00 UTC NOAA

TAF SCIE 282200Z 2900/2924 28010KT 9999 BKN014 OVC020 TX20/2918Z TN14/2910Z
BECMG 2901/2903 30004KT SCT008 BKN015
BECMG 2916/2918 26010KT BKN015
BECMG 2918/2920 SCT020

Example: see airport list